Elkwood, Virginia
Current Conditions -  °F | °C
As of 9:15 AM on Friday 28 Nov 2014 (Local Time) from KCJR Reporting Station
Scattered Clouds Scattered Clouds  
Wind Chill: 33°   Ceiling: Unl
Heat Index: 37°   Visibility: 10mi
Dew Point: 21°   Wind: 6mph
Humidity: 52%   Direction: 310°NW
Pressure: 30.34"   Gusts: NA
Location:  38.51°N, 77.86°W
Report Text: KCJR 281415Z AUTO 31005KT 10SM SCT050 03/M06 A3034 RMK AO2
Loading
Personal Weather Stations






























Interactive Weather Map New forecast layout! Learn more

10-Day Weather Forecast

Advertisements
Track Severe Weather on mobile